sensor_id;sensor_type;location;lat;lon;timestamp;P1;durP1;ratioP1;P2;durP2;ratioP2
49392;SDS011;35268;42.642;23.308;2023-08-31T00:00:44;4.70;;;1.65;;
49392;SDS011;35268;42.642;23.308;2023-08-31T00:03:09;8.88;;;1.92;;
49392;SDS011;35268;42.642;23.308;2023-08-31T00:05:36;4.90;;;1.65;;
49392;SDS011;35268;42.642;23.308;2023-08-31T00:08:04;8.52;;;2.03;;
49392;SDS011;35268;42.642;23.308;2023-08-31T00:10:31;4.80;;;1.92;;
49392;SDS011;35268;42.642;23.308;2023-08-31T00:12:56;6.28;;;1.63;;
49392;SDS011;35268;42.642;23.308;2023-08-31T00:15:22;6.55;;;1.75;;
49392;SDS011;35268;42.642;23.308;2023-08-31T00:17:48;5.15;;;2.42;;
49392;SDS011;35268;42.642;23.308;2023-08-31T00:20:14;5.75;;;1.75;;
49392;SDS011;35268;42.642;23.308;2023-08-31T00:22:39;3.70;;;1.63;;
49392;SDS011;35268;42.642;23.308;2023-08-31T00:25:05;5.78;;;2.22;;
49392;SDS011;35268;42.642;23.308;2023-08-31T00:27:33;7.05;;;2.00;;
49392;SDS011;35268;42.642;23.308;2023-08-31T00:29:59;7.60;;;2.00;;
49392;SDS011;35268;42.642;23.308;2023-08-31T00:32:24;9.48;;;2.00;;
49392;SDS011;35268;42.642;23.308;2023-08-31T00:34:50;4.22;;;1.70;;
49392;SDS011;35268;42.642;23.308;2023-08-31T00:37:15;9.20;;;2.20;;
49392;SDS011;35268;42.642;23.308;2023-08-31T00:39:41;10.40;;;2.20;;
49392;SDS011;35268;42.642;23.308;2023-08-31T00:42:08;9.35;;;1.75;;
49392;SDS011;35268;42.642;23.308;2023-08-31T00:44:34;4.97;;;1.58;;
49392;SDS011;35268;42.642;23.308;2023-08-31T00:46:59;3.80;;;1.77;;
49392;SDS011;35268;42.642;23.308;2023-08-31T00:49:27;10.65;;;3.42;;
49392;SDS011;35268;42.642;23.308;2023-08-31T00:51:52;7.20;;;2.22;;
49392;SDS011;35268;42.642;23.308;2023-08-31T00:54:18;3.63;;;1.50;;
49392;SDS011;35268;42.642;23.308;2023-08-31T00:56:44;11.43;;;2.13;;
49392;SDS011;35268;42.642;23.308;2023-08-31T00:59:10;6.28;;;1.85;;
49392;SDS011;35268;42.642;23.308;2023-08-31T01:04:53;6.00;;;1.90;;
49392;SDS011;35268;42.642;23.308;2023-08-31T01:07:34;5.28;;;2.00;;
49392;SDS011;35268;42.642;23.308;2023-08-31T01:15:36;5.93;;;1.55;;
49392;SDS011;35268;42.642;23.308;2023-08-31T01:18:03;3.22;;;1.48;;
49392;SDS011;35268;42.642;23.308;2023-08-31T01:20:42;7.43;;;2.20;;
49392;SDS011;35268;42.642;23.308;2023-08-31T01:23:15;7.47;;;1.80;;
49392;SDS011;35268;42.642;23.308;2023-08-31T01:25:43;5.25;;;1.50;;
49392;SDS011;35268;42.642;23.308;2023-08-31T01:28:11;8.15;;;1.92;;
49392;SDS011;35268;42.642;23.308;2023-08-31T01:30:37;7.10;;;1.88;;
49392;SDS011;35268;42.642;23.308;2023-08-31T01:33:03;9.80;;;3.25;;
49392;SDS011;35268;42.642;23.308;2023-08-31T01:35:30;6.32;;;2.22;;
49392;SDS011;35268;42.642;23.308;2023-08-31T01:38:06;5.15;;;1.67;;
49392;SDS011;35268;42.642;23.308;2023-08-31T01:40:35;4.10;;;1.73;;
49392;SDS011;35268;42.642;23.308;2023-08-31T01:43:01;8.35;;;1.63;;
49392;SDS011;35268;42.642;23.308;2023-08-31T01:45:29;9.13;;;1.88;;
49392;SDS011;35268;42.642;23.308;2023-08-31T01:47:56;6.10;;;1.98;;
49392;SDS011;35268;42.642;23.308;2023-08-31T01:50:22;6.18;;;2.08;;
49392;SDS011;35268;42.642;23.308;2023-08-31T01:52:48;6.22;;;2.28;;
49392;SDS011;35268;42.642;23.308;2023-08-31T01:55:13;4.40;;;1.55;;
49392;SDS011;35268;42.642;23.308;2023-08-31T01:57:40;5.05;;;2.05;;
49392;SDS011;35268;42.642;23.308;2023-08-31T02:00:06;10.48;;;2.22;;
49392;SDS011;35268;42.642;23.308;2023-08-31T02:02:35;4.40;;;1.77;;
49392;SDS011;35268;42.642;23.308;2023-08-31T02:05:01;6.95;;;1.67;;
49392;SDS011;35268;42.642;23.308;2023-08-31T02:07:29;5.43;;;1.70;;
49392;SDS011;35268;42.642;23.308;2023-08-31T02:09:55;4.38;;;1.55;;
49392;SDS011;35268;42.642;23.308;2023-08-31T02:12:20;4.97;;;1.60;;
49392;SDS011;35268;42.642;23.308;2023-08-31T02:14:45;6.63;;;2.03;;
49392;SDS011;35268;42.642;23.308;2023-08-31T02:17:11;7.25;;;2.25;;
49392;SDS011;35268;42.642;23.308;2023-08-31T02:19:36;6.20;;;1.85;;
49392;SDS011;35268;42.642;23.308;2023-08-31T02:22:02;8.25;;;2.17;;
49392;SDS011;35268;42.642;23.308;2023-08-31T02:24:30;9.13;;;2.40;;
49392;SDS011;35268;42.642;23.308;2023-08-31T02:26:56;3.35;;;1.30;;
49392;SDS011;35268;42.642;23.308;2023-08-31T02:29:21;6.97;;;1.77;;
49392;SDS011;35268;42.642;23.308;2023-08-31T02:31:47;4.38;;;1.90;;
49392;SDS011;35268;42.642;23.308;2023-08-31T02:34:12;6.20;;;1.90;;
49392;SDS011;35268;42.642;23.308;2023-08-31T02:36:37;7.00;;;2.22;;
49392;SDS011;35268;42.642;23.308;2023-08-31T02:39:03;7.35;;;1.80;;
49392;SDS011;35268;42.642;23.308;2023-08-31T02:41:29;5.03;;;1.80;;
49392;SDS011;35268;42.642;23.308;2023-08-31T02:43:54;17.02;;;2.03;;
49392;SDS011;35268;42.642;23.308;2023-08-31T02:46:20;5.00;;;1.65;;
49392;SDS011;35268;42.642;23.308;2023-08-31T02:48:45;5.22;;;2.00;;
49392;SDS011;35268;42.642;23.308;2023-08-31T02:51:11;5.28;;;1.95;;
49392;SDS011;35268;42.642;23.308;2023-08-31T02:53:36;5.43;;;1.70;;
49392;SDS011;35268;42.642;23.308;2023-08-31T02:56:02;5.43;;;1.65;;
49392;SDS011;35268;42.642;23.308;2023-08-31T02:58:27;9.25;;;2.50;;
49392;SDS011;35268;42.642;23.308;2023-08-31T03:00:53;8.02;;;2.22;;
49392;SDS011;35268;42.642;23.308;2023-08-31T03:03:19;4.55;;;1.92;;
49392;SDS011;35268;42.642;23.308;2023-08-31T03:05:45;6.72;;;2.65;;
49392;SDS011;35268;42.642;23.308;2023-08-31T03:08:10;6.40;;;1.80;;
49392;SDS011;35268;42.642;23.308;2023-08-31T03:10:37;4.65;;;1.70;;
49392;SDS011;35268;42.642;23.308;2023-08-31T03:13:03;14.52;;;1.50;;
49392;SDS011;35268;42.642;23.308;2023-08-31T03:15:28;4.25;;;1.65;;
49392;SDS011;35268;42.642;23.308;2023-08-31T03:17:54;6.90;;;2.20;;
49392;SDS011;35268;42.642;23.308;2023-08-31T03:20:19;5.28;;;1.77;;
49392;SDS011;35268;42.642;23.308;2023-08-31T03:22:45;8.40;;;1.77;;
49392;SDS011;35268;42.642;23.308;2023-08-31T03:25:10;6.20;;;1.90;;
49392;SDS011;35268;42.642;23.308;2023-08-31T03:27:36;8.13;;;2.00;;
49392;SDS011;35268;42.642;23.308;2023-08-31T03:30:01;6.25;;;1.73;;
49392;SDS011;35268;42.642;23.308;2023-08-31T03:32:28;6.40;;;1.90;;
49392;SDS011;35268;42.642;23.308;2023-08-31T03:34:53;7.97;;;2.42;;
49392;SDS011;35268;42.642;23.308;2023-08-31T03:37:19;8.13;;;2.22;;
49392;SDS011;35268;42.642;23.308;2023-08-31T03:39:49;12.35;;;2.13;;
49392;SDS011;35268;42.642;23.308;2023-08-31T03:42:14;7.18;;;2.28;;
49392;SDS011;35268;42.642;23.308;2023-08-31T03:44:40;10.23;;;3.08;;
49392;SDS011;35268;42.642;23.308;2023-08-31T03:47:06;15.02;;;3.00;;
49392;SDS011;35268;42.642;23.308;2023-08-31T03:49:32;11.07;;;2.35;;
49392;SDS011;35268;42.642;23.308;2023-08-31T03:51:58;18.50;;;3.50;;
49392;SDS011;35268;42.642;23.308;2023-08-31T03:54:24;11.00;;;3.20;;
49392;SDS011;35268;42.642;23.308;2023-08-31T03:56:49;8.73;;;2.83;;
49392;SDS011;35268;42.642;23.308;2023-08-31T03:59:15;7.38;;;3.03;;
49392;SDS011;35268;42.642;23.308;2023-08-31T04:01:41;6.15;;;2.13;;
49392;SDS011;35268;42.642;23.308;2023-08-31T04:04:06;7.18;;;2.15;;
49392;SDS011;35268;42.642;23.308;2023-08-31T04:06:47;6.15;;;2.20;;
49392;SDS011;35268;42.642;23.308;2023-08-31T04:09:57;5.93;;;2.42;;
49392;SDS011;35268;42.642;23.308;2023-08-31T04:12:23;13.48;;;2.05;;
49392;SDS011;35268;42.642;23.308;2023-08-31T04:14:49;12.38;;;2.53;;
49392;SDS011;35268;42.642;23.308;2023-08-31T04:17:14;11.68;;;2.35;;
49392;SDS011;35268;42.642;23.308;2023-08-31T04:19:40;10.80;;;2.53;;
49392;SDS011;35268;42.642;23.308;2023-08-31T04:22:05;8.82;;;2.05;;
49392;SDS011;35268;42.642;23.308;2023-08-31T04:24:30;9.48;;;2.42;;
49392;SDS011;35268;42.642;23.308;2023-08-31T04:26:56;11.80;;;2.83;;
49392;SDS011;35268;42.642;23.308;2023-08-31T04:29:21;23.10;;;3.17;;
49392;SDS011;35268;42.642;23.308;2023-08-31T04:31:47;5.97;;;2.13;;
49392;SDS011;35268;42.642;23.308;2023-08-31T04:34:13;15.25;;;2.97;;
49392;SDS011;35268;42.642;23.308;2023-08-31T04:36:38;7.95;;;2.60;;
49392;SDS011;35268;42.642;23.308;2023-08-31T04:39:04;11.95;;;2.05;;
49392;SDS011;35268;42.642;23.308;2023-08-31T04:41:30;9.10;;;2.20;;
49392;SDS011;35268;42.642;23.308;2023-08-31T04:43:55;16.23;;;2.78;;
49392;SDS011;35268;42.642;23.308;2023-08-31T04:46:21;8.18;;;2.65;;
49392;SDS011;35268;42.642;23.308;2023-08-31T04:48:46;11.55;;;2.67;;
49392;SDS011;35268;42.642;23.308;2023-08-31T04:51:31;12.98;;;2.53;;
49392;SDS011;35268;42.642;23.308;2023-08-31T04:54:02;20.00;;;2.72;;
49392;SDS011;35268;42.642;23.308;2023-08-31T04:56:31;15.25;;;3.15;;
49392;SDS011;35268;42.642;23.308;2023-08-31T04:58:58;16.05;;;2.83;;
49392;SDS011;35268;42.642;23.308;2023-08-31T05:01:24;24.67;;;3.28;;
49392;SDS011;35268;42.642;23.308;2023-08-31T05:03:49;13.30;;;2.78;;
49392;SDS011;35268;42.642;23.308;2023-08-31T05:06:15;14.07;;;2.13;;
49392;SDS011;35268;42.642;23.308;2023-08-31T05:08:40;16.77;;;2.67;;
49392;SDS011;35268;42.642;23.308;2023-08-31T05:11:06;18.48;;;2.67;;
49392;SDS011;35268;42.642;23.308;2023-08-31T05:13:32;11.80;;;2.35;;
49392;SDS011;35268;42.642;23.308;2023-08-31T05:15:57;7.00;;;2.30;;
49392;SDS011;35268;42.642;23.308;2023-08-31T05:18:23;8.82;;;1.85;;
49392;SDS011;35268;42.642;23.308;2023-08-31T05:20:48;7.18;;;1.60;;
49392;SDS011;35268;42.642;23.308;2023-08-31T05:23:14;6.55;;;1.50;;
49392;SDS011;35268;42.642;23.308;2023-08-31T05:25:43;8.70;;;2.20;;
49392;SDS011;35268;42.642;23.308;2023-08-31T05:28:09;7.45;;;2.00;;
49392;SDS011;35268;42.642;23.308;2023-08-31T05:30:35;6.05;;;1.45;;
49392;SDS011;35268;42.642;23.308;2023-08-31T05:33:00;5.20;;;2.65;;
49392;SDS011;35268;42.642;23.308;2023-08-31T05:35:26;8.63;;;1.83;;
49392;SDS011;35268;42.642;23.308;2023-08-31T05:37:52;13.93;;;2.67;;
49392;SDS011;35268;42.642;23.308;2023-08-31T05:40:17;9.52;;;2.10;;
49392;SDS011;35268;42.642;23.308;2023-08-31T05:42:43;12.15;;;2.65;;
49392;SDS011;35268;42.642;23.308;2023-08-31T05:45:09;12.10;;;2.33;;
49392;SDS011;35268;42.642;23.308;2023-08-31T05:47:34;15.82;;;2.03;;
49392;SDS011;35268;42.642;23.308;2023-08-31T05:50:01;19.10;;;3.28;;
49392;SDS011;35268;42.642;23.308;2023-08-31T05:52:27;15.13;;;2.60;;
49392;SDS011;35268;42.642;23.308;2023-08-31T05:54:52;13.60;;;2.67;;
49392;SDS011;35268;42.642;23.308;2023-08-31T05:57:18;12.80;;;1.83;;
49392;SDS011;35268;42.642;23.308;2023-08-31T05:59:46;9.57;;;2.85;;
49392;SDS011;35268;42.642;23.308;2023-08-31T06:02:11;13.32;;;2.38;;
49392;SDS011;35268;42.642;23.308;2023-08-31T06:04:37;13.13;;;2.58;;
49392;SDS011;35268;42.642;23.308;2023-08-31T06:07:03;11.60;;;2.97;;
49392;SDS011;35268;42.642;23.308;2023-08-31T06:09:29;5.97;;;1.88;;
49392;SDS011;35268;42.642;23.308;2023-08-31T06:12:05;12.68;;;1.92;;
49392;SDS011;35268;42.642;23.308;2023-08-31T06:14:31;7.95;;;1.75;;
49392;SDS011;35268;42.642;23.308;2023-08-31T06:16:57;8.48;;;2.00;;
49392;SDS011;35268;42.642;23.308;2023-08-31T06:19:23;6.75;;;1.80;;
49392;SDS011;35268;42.642;23.308;2023-08-31T06:21:51;10.07;;;2.55;;
49392;SDS011;35268;42.642;23.308;2023-08-31T06:24:17;16.48;;;6.15;;
49392;SDS011;35268;42.642;23.308;2023-08-31T06:26:42;15.00;;;2.70;;
49392;SDS011;35268;42.642;23.308;2023-08-31T06:29:11;8.05;;;2.25;;
49392;SDS011;35268;42.642;23.308;2023-08-31T06:31:37;9.95;;;2.40;;
49392;SDS011;35268;42.642;23.308;2023-08-31T06:34:02;13.43;;;2.88;;
49392;SDS011;35268;42.642;23.308;2023-08-31T06:36:29;15.10;;;3.15;;
49392;SDS011;35268;42.642;23.308;2023-08-31T06:38:55;15.50;;;3.05;;
49392;SDS011;35268;42.642;23.308;2023-08-31T06:41:20;12.90;;;2.63;;
49392;SDS011;35268;42.642;23.308;2023-08-31T06:43:46;7.13;;;2.40;;
49392;SDS011;35268;42.642;23.308;2023-08-31T06:46:11;11.40;;;3.20;;
49392;SDS011;35268;42.642;23.308;2023-08-31T06:48:37;11.10;;;2.20;;
49392;SDS011;35268;42.642;23.308;2023-08-31T06:51:02;13.60;;;2.53;;
49392;SDS011;35268;42.642;23.308;2023-08-31T06:53:29;8.13;;;3.45;;
49392;SDS011;35268;42.642;23.308;2023-08-31T06:55:58;11.25;;;2.97;;
49392;SDS011;35268;42.642;23.308;2023-08-31T06:58:23;9.30;;;2.65;;
49392;SDS011;35268;42.642;23.308;2023-08-31T07:00:49;10.68;;;2.30;;
49392;SDS011;35268;42.642;23.308;2023-08-31T07:03:14;6.07;;;2.40;;
49392;SDS011;35268;42.642;23.308;2023-08-31T07:05:43;9.68;;;3.20;;
49392;SDS011;35268;42.642;23.308;2023-08-31T07:08:09;8.40;;;2.53;;
49392;SDS011;35268;42.642;23.308;2023-08-31T07:10:35;16.58;;;4.55;;
49392;SDS011;35268;42.642;23.308;2023-08-31T07:13:01;11.32;;;3.15;;
49392;SDS011;35268;42.642;23.308;2023-08-31T07:15:28;15.48;;;3.40;;
49392;SDS011;35268;42.642;23.308;2023-08-31T07:17:54;24.73;;;4.28;;
49392;SDS011;35268;42.642;23.308;2023-08-31T07:20:19;10.52;;;3.78;;
49392;SDS011;35268;42.642;23.308;2023-08-31T07:22:45;20.55;;;3.20;;
49392;SDS011;35268;42.642;23.308;2023-08-31T07:25:10;11.82;;;3.78;;
49392;SDS011;35268;42.642;23.308;2023-08-31T07:27:37;13.50;;;3.10;;
49392;SDS011;35268;42.642;23.308;2023-08-31T07:30:03;10.77;;;2.75;;
49392;SDS011;35268;42.642;23.308;2023-08-31T07:32:32;8.05;;;2.35;;
49392;SDS011;35268;42.642;23.308;2023-08-31T07:34:58;12.48;;;2.33;;
49392;SDS011;35268;42.642;23.308;2023-08-31T07:37:23;12.23;;;2.00;;
49392;SDS011;35268;42.642;23.308;2023-08-31T07:39:49;13.38;;;1.63;;
49392;SDS011;35268;42.642;23.308;2023-08-31T07:42:15;8.63;;;1.95;;
49392;SDS011;35268;42.642;23.308;2023-08-31T07:44:40;6.95;;;1.60;;
49392;SDS011;35268;42.642;23.308;2023-08-31T07:47:07;12.45;;;1.77;;
49392;SDS011;35268;42.642;23.308;2023-08-31T07:49:32;4.43;;;1.58;;
49392;SDS011;35268;42.642;23.308;2023-08-31T07:51:58;6.85;;;1.67;;
49392;SDS011;35268;42.642;23.308;2023-08-31T07:54:23;5.32;;;1.50;;
49392;SDS011;35268;42.642;23.308;2023-08-31T07:56:49;9.02;;;2.13;;
49392;SDS011;35268;42.642;23.308;2023-08-31T07:59:14;5.15;;;1.45;;
49392;SDS011;35268;42.642;23.308;2023-08-31T08:01:41;5.13;;;1.38;;
49392;SDS011;35268;42.642;23.308;2023-08-31T08:04:06;6.82;;;1.80;;
49392;SDS011;35268;42.642;23.308;2023-08-31T08:06:32;5.00;;;1.70;;
49392;SDS011;35268;42.642;23.308;2023-08-31T08:08:57;5.63;;;1.70;;
49392;SDS011;35268;42.642;23.308;2023-08-31T08:11:22;8.30;;;3.10;;
49392;SDS011;35268;42.642;23.308;2023-08-31T08:13:48;11.10;;;3.22;;
49392;SDS011;35268;42.642;23.308;2023-08-31T08:16:13;7.10;;;2.83;;
49392;SDS011;35268;42.642;23.308;2023-08-31T08:18:39;8.65;;;2.55;;
49392;SDS011;35268;42.642;23.308;2023-08-31T08:21:05;7.20;;;2.67;;
49392;SDS011;35268;42.642;23.308;2023-08-31T08:23:31;9.90;;;4.43;;
49392;SDS011;35268;42.642;23.308;2023-08-31T08:25:56;9.25;;;4.20;;
49392;SDS011;35268;42.642;23.308;2023-08-31T08:28:24;9.45;;;4.07;;
49392;SDS011;35268;42.642;23.308;2023-08-31T08:30:50;10.13;;;4.43;;
49392;SDS011;35268;42.642;23.308;2023-08-31T08:33:16;11.25;;;4.72;;
49392;SDS011;35268;42.642;23.308;2023-08-31T08:35:41;7.07;;;3.78;;
49392;SDS011;35268;42.642;23.308;2023-08-31T08:38:06;10.10;;;4.38;;
49392;SDS011;35268;42.642;23.308;2023-08-31T08:40:32;8.57;;;3.78;;
49392;SDS011;35268;42.642;23.308;2023-08-31T08:43:00;8.82;;;3.38;;
49392;SDS011;35268;42.642;23.308;2023-08-31T08:45:26;10.10;;;3.30;;
49392;SDS011;35268;42.642;23.308;2023-08-31T08:48:01;7.32;;;3.20;;
49392;SDS011;35268;42.642;23.308;2023-08-31T08:50:30;8.18;;;3.40;;
49392;SDS011;35268;42.642;23.308;2023-08-31T08:52:59;7.15;;;3.60;;
49392;SDS011;35268;42.642;23.308;2023-08-31T08:55:25;6.97;;;3.50;;
49392;SDS011;35268;42.642;23.308;2023-08-31T08:57:50;7.18;;;4.05;;
49392;SDS011;35268;42.642;23.308;2023-08-31T09:00:16;8.07;;;3.67;;
49392;SDS011;35268;42.642;23.308;2023-08-31T09:02:41;6.70;;;3.78;;
49392;SDS011;35268;42.642;23.308;2023-08-31T09:05:07;6.55;;;3.28;;
49392;SDS011;35268;42.642;23.308;2023-08-31T09:10:41;8.50;;;4.13;;
49392;SDS011;35268;42.642;23.308;2023-08-31T09:15:36;7.18;;;3.15;;
49392;SDS011;35268;42.642;23.308;2023-08-31T09:18:23;7.45;;;3.70;;
49392;SDS011;35268;42.642;23.308;2023-08-31T09:20:50;7.55;;;3.50;;
49392;SDS011;35268;42.642;23.308;2023-08-31T09:23:16;5.97;;;3.35;;
49392;SDS011;35268;42.642;23.308;2023-08-31T09:25:46;6.63;;;3.55;;
49392;SDS011;35268;42.642;23.308;2023-08-31T09:28:18;6.57;;;3.67;;
49392;SDS011;35268;42.642;23.308;2023-08-31T09:30:45;7.13;;;3.28;;
49392;SDS011;35268;42.642;23.308;2023-08-31T09:33:13;9.70;;;3.95;;
49392;SDS011;35268;42.642;23.308;2023-08-31T09:35:46;8.35;;;3.40;;
49392;SDS011;35268;42.642;23.308;2023-08-31T09:38:14;6.45;;;3.33;;
49392;SDS011;35268;42.642;23.308;2023-08-31T09:40:40;7.63;;;3.33;;
49392;SDS011;35268;42.642;23.308;2023-08-31T09:43:05;6.72;;;3.47;;
49392;SDS011;35268;42.642;23.308;2023-08-31T09:45:31;6.93;;;3.85;;
49392;SDS011;35268;42.642;23.308;2023-08-31T09:48:01;9.35;;;4.05;;
49392;SDS011;35268;42.642;23.308;2023-08-31T09:50:29;6.72;;;3.55;;
49392;SDS011;35268;42.642;23.308;2023-08-31T09:52:56;7.43;;;3.40;;
49392;SDS011;35268;42.642;23.308;2023-08-31T09:55:27;8.40;;;3.50;;
49392;SDS011;35268;42.642;23.308;2023-08-31T09:57:54;7.28;;;3.30;;
49392;SDS011;35268;42.642;23.308;2023-08-31T10:00:22;7.32;;;3.67;;
49392;SDS011;35268;42.642;23.308;2023-08-31T10:02:48;7.82;;;4.07;;
49392;SDS011;35268;42.642;23.308;2023-08-31T10:05:14;9.15;;;3.65;;
49392;SDS011;35268;42.642;23.308;2023-08-31T10:07:41;9.32;;;3.53;;
49392;SDS011;35268;42.642;23.308;2023-08-31T10:10:08;7.15;;;3.05;;
49392;SDS011;35268;42.642;23.308;2023-08-31T10:12:34;8.27;;;3.63;;
49392;SDS011;35268;42.642;23.308;2023-08-31T10:15:00;6.78;;;3.45;;
49392;SDS011;35268;42.642;23.308;2023-08-31T10:17:26;9.45;;;4.50;;
49392;SDS011;35268;42.642;23.308;2023-08-31T10:19:53;7.28;;;3.97;;
49392;SDS011;35268;42.642;23.308;2023-08-31T10:22:20;9.45;;;4.72;;
49392;SDS011;35268;42.642;23.308;2023-08-31T10:25:02;5.35;;;3.05;;
49392;SDS011;35268;42.642;23.308;2023-08-31T10:27:35;6.43;;;3.92;;
49392;SDS011;35268;42.642;23.308;2023-08-31T10:35:41;7.45;;;3.55;;
49392;SDS011;35268;42.642;23.308;2023-08-31T10:38:23;7.60;;;4.15;;
49392;SDS011;35268;42.642;23.308;2023-08-31T10:43:51;5.60;;;3.15;;
49392;SDS011;35268;42.642;23.308;2023-08-31T10:46:32;8.98;;;4.07;;
49392;SDS011;35268;42.642;23.308;2023-08-31T10:48:59;10.82;;;4.03;;
49392;SDS011;35268;42.642;23.308;2023-08-31T10:51:32;9.57;;;3.78;;
49392;SDS011;35268;42.642;23.308;2023-08-31T10:59:20;6.28;;;3.65;;
49392;SDS011;35268;42.642;23.308;2023-08-31T11:01:53;6.63;;;3.83;;
49392;SDS011;35268;42.642;23.308;2023-08-31T11:04:29;6.38;;;3.53;;
49392;SDS011;35268;42.642;23.308;2023-08-31T11:09:41;6.30;;;3.58;;
49392;SDS011;35268;42.642;23.308;2023-08-31T11:12:07;4.90;;;2.58;;
49392;SDS011;35268;42.642;23.308;2023-08-31T11:14:33;6.95;;;2.75;;
49392;SDS011;35268;42.642;23.308;2023-08-31T11:16:59;9.20;;;4.03;;
49392;SDS011;35268;42.642;23.308;2023-08-31T11:19:26;9.73;;;3.25;;
49392;SDS011;35268;42.642;23.308;2023-08-31T11:21:52;8.63;;;3.58;;
49392;SDS011;35268;42.642;23.308;2023-08-31T11:24:19;5.20;;;2.92;;
49392;SDS011;35268;42.642;23.308;2023-08-31T11:26:47;6.72;;;3.47;;
49392;SDS011;35268;42.642;23.308;2023-08-31T11:29:16;6.97;;;3.20;;
49392;SDS011;35268;42.642;23.308;2023-08-31T11:31:42;6.63;;;3.30;;
49392;SDS011;35268;42.642;23.308;2023-08-31T11:34:14;8.00;;;3.42;;
49392;SDS011;35268;42.642;23.308;2023-08-31T11:36:41;9.98;;;3.00;;
49392;SDS011;35268;42.642;23.308;2023-08-31T11:39:08;6.68;;;3.28;;
49392;SDS011;35268;42.642;23.308;2023-08-31T11:41:38;7.35;;;3.00;;
49392;SDS011;35268;42.642;23.308;2023-08-31T11:44:07;7.05;;;3.10;;
49392;SDS011;35268;42.642;23.308;2023-08-31T11:46:35;6.57;;;3.08;;
49392;SDS011;35268;42.642;23.308;2023-08-31T11:49:01;4.43;;;2.55;;
49392;SDS011;35268;42.642;23.308;2023-08-31T11:51:29;9.60;;;3.55;;
49392;SDS011;35268;42.642;23.308;2023-08-31T11:53:56;7.63;;;3.00;;
49392;SDS011;35268;42.642;23.308;2023-08-31T11:56:23;7.78;;;2.97;;
49392;SDS011;35268;42.642;23.308;2023-08-31T11:58:50;6.38;;;2.67;;
49392;SDS011;35268;42.642;23.308;2023-08-31T12:01:20;8.00;;;2.72;;
49392;SDS011;35268;42.642;23.308;2023-08-31T12:03:46;6.72;;;2.70;;
49392;SDS011;35268;42.642;23.308;2023-08-31T12:06:17;5.60;;;2.70;;
49392;SDS011;35268;42.642;23.308;2023-08-31T12:08:43;5.70;;;2.73;;
49392;SDS011;35268;42.642;23.308;2023-08-31T12:11:09;6.72;;;2.88;;
49392;SDS011;35268;42.642;23.308;2023-08-31T12:13:34;9.73;;;4.05;;
49392;SDS011;35268;42.642;23.308;2023-08-31T12:16:00;7.95;;;3.67;;
49392;SDS011;35268;42.642;23.308;2023-08-31T12:18:29;17.25;;;8.20;;
49392;SDS011;35268;42.642;23.308;2023-08-31T12:20:56;7.72;;;2.95;;
49392;SDS011;35268;42.642;23.308;2023-08-31T12:23:22;8.05;;;2.97;;
49392;SDS011;35268;42.642;23.308;2023-08-31T12:25:48;6.53;;;2.67;;
49392;SDS011;35268;42.642;23.308;2023-08-31T12:28:16;8.10;;;2.75;;
49392;SDS011;35268;42.642;23.308;2023-08-31T12:30:47;9.35;;;3.35;;
49392;SDS011;35268;42.642;23.308;2023-08-31T12:33:13;7.22;;;2.50;;
49392;SDS011;35268;42.642;23.308;2023-08-31T12:35:39;6.03;;;2.85;;
49392;SDS011;35268;42.642;23.308;2023-08-31T12:38:04;6.28;;;2.63;;
49392;SDS011;35268;42.642;23.308;2023-08-31T12:40:30;6.57;;;3.00;;
49392;SDS011;35268;42.642;23.308;2023-08-31T12:42:55;5.55;;;2.35;;
49392;SDS011;35268;42.642;23.308;2023-08-31T12:45:21;5.78;;;2.88;;
49392;SDS011;35268;42.642;23.308;2023-08-31T12:47:46;8.10;;;2.42;;
49392;SDS011;35268;42.642;23.308;2023-08-31T12:50:12;6.82;;;3.10;;
49392;SDS011;35268;42.642;23.308;2023-08-31T12:52:38;6.72;;;2.72;;
49392;SDS011;35268;42.642;23.308;2023-08-31T12:55:09;7.22;;;2.70;;
49392;SDS011;35268;42.642;23.308;2023-08-31T12:57:35;6.47;;;2.55;;
49392;SDS011;35268;42.642;23.308;2023-08-31T13:00:01;7.32;;;2.90;;
49392;SDS011;35268;42.642;23.308;2023-08-31T13:02:30;4.25;;;2.20;;
49392;SDS011;35268;42.642;23.308;2023-08-31T13:04:56;6.03;;;2.50;;
49392;SDS011;35268;42.642;23.308;2023-08-31T13:07:21;7.60;;;2.88;;
49392;SDS011;35268;42.642;23.308;2023-08-31T13:09:46;7.00;;;2.83;;
49392;SDS011;35268;42.642;23.308;2023-08-31T13:12:12;6.65;;;2.67;;
49392;SDS011;35268;42.642;23.308;2023-08-31T13:14:37;14.13;;;3.35;;
49392;SDS011;35268;42.642;23.308;2023-08-31T13:17:04;6.50;;;2.38;;
49392;SDS011;35268;42.642;23.308;2023-08-31T13:19:30;7.25;;;2.38;;
49392;SDS011;35268;42.642;23.308;2023-08-31T13:21:55;8.27;;;2.40;;
49392;SDS011;35268;42.642;23.308;2023-08-31T13:24:20;11.35;;;2.92;;
49392;SDS011;35268;42.642;23.308;2023-08-31T13:26:46;6.30;;;2.88;;
49392;SDS011;35268;42.642;23.308;2023-08-31T13:29:13;6.45;;;2.88;;
49392;SDS011;35268;42.642;23.308;2023-08-31T13:31:39;6.05;;;2.60;;
49392;SDS011;35268;42.642;23.308;2023-08-31T13:34:04;7.85;;;2.55;;
49392;SDS011;35268;42.642;23.308;2023-08-31T13:36:32;8.20;;;3.05;;
49392;SDS011;35268;42.642;23.308;2023-08-31T13:38:58;12.90;;;2.72;;
49392;SDS011;35268;42.642;23.308;2023-08-31T13:41:23;10.73;;;3.22;;
49392;SDS011;35268;42.642;23.308;2023-08-31T13:43:49;7.25;;;2.33;;
49392;SDS011;35268;42.642;23.308;2023-08-31T13:46:14;5.22;;;2.65;;
49392;SDS011;35268;42.642;23.308;2023-08-31T13:48:39;6.82;;;2.90;;
49392;SDS011;35268;42.642;23.308;2023-08-31T13:51:05;9.00;;;3.20;;
49392;SDS011;35268;42.642;23.308;2023-08-31T13:53:31;8.20;;;2.33;;
49392;SDS011;35268;42.642;23.308;2023-08-31T13:55:56;5.97;;;2.05;;
49392;SDS011;35268;42.642;23.308;2023-08-31T13:58:22;8.43;;;3.10;;
49392;SDS011;35268;42.642;23.308;2023-08-31T14:00:47;9.07;;;2.50;;
49392;SDS011;35268;42.642;23.308;2023-08-31T14:03:13;4.95;;;2.30;;
49392;SDS011;35268;42.642;23.308;2023-08-31T14:05:39;6.75;;;2.55;;
49392;SDS011;35268;42.642;23.308;2023-08-31T14:08:05;6.35;;;2.80;;
49392;SDS011;35268;42.642;23.308;2023-08-31T14:10:31;8.75;;;2.58;;
49392;SDS011;35268;42.642;23.308;2023-08-31T14:13:00;6.57;;;2.20;;
49392;SDS011;35268;42.642;23.308;2023-08-31T14:15:25;7.57;;;2.17;;
49392;SDS011;35268;42.642;23.308;2023-08-31T14:17:51;4.47;;;2.00;;
49392;SDS011;35268;42.642;23.308;2023-08-31T14:20:18;4.95;;;2.20;;
49392;SDS011;35268;42.642;23.308;2023-08-31T14:22:44;5.15;;;2.35;;
49392;SDS011;35268;42.642;23.308;2023-08-31T14:25:13;6.95;;;2.78;;
49392;SDS011;35268;42.642;23.308;2023-08-31T14:27:39;8.15;;;2.20;;
49392;SDS011;35268;42.642;23.308;2023-08-31T14:30:05;7.45;;;2.80;;
49392;SDS011;35268;42.642;23.308;2023-08-31T14:32:31;8.02;;;2.58;;
49392;SDS011;35268;42.642;23.308;2023-08-31T14:34:57;5.60;;;1.92;;
49392;SDS011;35268;42.642;23.308;2023-08-31T14:37:23;9.65;;;2.58;;
49392;SDS011;35268;42.642;23.308;2023-08-31T14:39:48;7.28;;;2.28;;
49392;SDS011;35268;42.642;23.308;2023-08-31T14:42:14;8.70;;;2.42;;
49392;SDS011;35268;42.642;23.308;2023-08-31T14:44:41;5.43;;;2.30;;
49392;SDS011;35268;42.642;23.308;2023-08-31T14:47:07;7.72;;;2.45;;
49392;SDS011;35268;42.642;23.308;2023-08-31T14:49:32;6.28;;;2.15;;
49392;SDS011;35268;42.642;23.308;2023-08-31T14:51:58;8.15;;;1.77;;
49392;SDS011;35268;42.642;23.308;2023-08-31T14:54:29;6.63;;;2.70;;
49392;SDS011;35268;42.642;23.308;2023-08-31T14:56:55;10.60;;;2.72;;
49392;SDS011;35268;42.642;23.308;2023-08-31T14:59:20;12.55;;;3.00;;